Delaware, Iowa
Current Conditions -  °F | °C
As of 11:15 AM on Saturday 20 Dec 2014 (Local Time) from KMXO Reporting Station
Haze Haze  
Wind Chill: 22°   Ceiling: 1100
Heat Index: 30°   Visibility: 5mi
Dew Point: 28°   Wind: 9mph
Humidity: 93%   Direction: 150°SSE
Pressure: 30.22"   Gusts: NA
Location:  42.48°N, 91.35°W
Report Text: KMXO 201715Z AUTO 15008KT 5SM BR OVC011 M01/M02 A3022 RMK AO2
Loading
Personal Weather Stations






























Interactive Weather Map New forecast layout! Learn more

10-Day Weather Forecast

Advertisements
Track Severe Weather on mobile